Time;durP1;ratioP1;P1;durP2;ratioP2;P2;SDS_P1;SDS_P2;PMS_P1;PMS_P2;Temp;Humidity;BMP_temperature;BMP_pressure;BME280_temperature;BME280_humidity;BME280_pressure;Samples;Min_cycle;Max_cycle;Signal;HPM_P1;HPM_P2
2022/07/05 00:01:51;;;;;;;6.73;3.10;;;19.30;2.10;;;;;;5014416;28;20200;-81
2022/07/05 00:04:16;;;;;;;6.37;3.40;;;19.30;1.90;;;;;;5014472;28;20166;-81
2022/07/05 00:07:17;;;;;;;6.03;3.40;;;19.10;7.20;;;;;;5014222;28;20181;-80
2022/07/05 00:09:28;;;;;;;7.23;3.50;;;18.90;12.50;;;;;;5014228;28;20693;-82
2022/07/05 00:11:54;;;;;;;5.90;3.40;;;19.00;13.30;;;;;;5023153;28;20200;-81
2022/07/05 00:14:20;;;;;;;6.03;3.60;;;19.10;9.60;;;;;;5029193;28;20167;-78
2022/07/05 00:16:45;;;;;;;9.10;3.90;;;19.30;6.30;;;;;;5018861;28;20167;-81
2022/07/05 00:19:11;;;;;;;5.33;3.43;;;19.30;5.00;;;;;;5014816;28;20165;-80
2022/07/05 00:21:37;;;;;;;5.53;3.43;;;19.40;4.20;;;;;;5015541;28;20179;-80
2022/07/05 00:24:05;;;;;;;4.33;3.30;;;19.40;3.80;;;;;;5014349;28;20635;-77
2022/07/05 00:26:30;;;;;;;7.83;3.20;;;19.50;1.20;;;;;;5014836;28;20177;-79
2022/07/05 00:28:59;;;;;;;6.07;3.10;;;19.50;1.00;;;;;;5014540;28;20306;-80
2022/07/05 00:31:25;;;;;;;5.73;3.40;;;19.60;1.00;;;;;;5015212;28;20165;-77
2022/07/05 00:33:50;;;;;;;4.90;3.07;;;19.60;1.00;;;;;;5029307;28;20186;-78
2022/07/05 00:36:17;;;;;;;5.67;3.20;;;19.50;1.00;;;;;;5015331;28;20633;-81
2022/07/05 00:38:42;;;;;;;4.90;3.00;;;19.50;2.70;;;;;;5014358;28;20267;-85
2022/07/05 00:41:08;;;;;;;5.43;3.00;;;19.40;1.20;;;;;;5015792;28;20646;-84
2022/07/05 00:43:34;;;;;;;9.07;3.80;;;19.30;3.70;;;;;;5013900;28;20636;-84
2022/07/05 00:45:59;;;;;;;5.63;3.23;;;19.20;9.50;;;;;;5014973;28;20633;-84
2022/07/05 00:48:25;;;;;;;4.53;3.27;;;19.40;6.40;;;;;;5015092;28;20270;-83
2022/07/05 00:50:51;;;;;;;6.03;3.87;;;19.40;6.20;;;;;;5014741;28;20551;-85
2022/07/05 00:53:17;;;;;;;4.97;3.80;;;19.40;5.70;;;;;;5015933;28;20591;-83
2022/07/05 00:55:44;;;;;;;5.73;3.70;;;19.50;2.00;;;;;;5014236;28;20180;-83
2022/07/05 00:58:11;;;;;;;5.07;3.47;;;19.40;2.50;;;;;;5015560;28;20230;-85
2022/07/05 01:00:37;;;;;;;5.47;3.40;;;19.40;2.40;;;;;;5015927;28;20162;-83
2022/07/05 01:03:04;;;;;;;5.90;3.70;;;19.50;1.00;;;;;;5015381;28;20178;-85
2022/07/05 01:05:31;;;;;;;6.30;3.50;;;19.40;2.40;;;;;;5016500;28;20165;-81
2022/07/05 01:07:58;;;;;;;4.83;3.27;;;19.40;3.00;;;;;;5014567;28;20638;-77
2022/07/05 01:10:24;;;;;;;8.07;4.20;;;19.40;2.20;;;;;;5015336;28;20197;-85
2022/07/05 01:12:50;;;;;;;6.53;3.40;;;19.40;4.20;;;;;;5015323;28;20177;-84
2022/07/05 01:15:17;;;;;;;7.27;3.83;;;19.40;6.20;;;;;;5015104;28;20175;-85
2022/07/05 01:17:43;;;;;;;6.00;3.57;;;19.20;11.30;;;;;;5016270;28;20172;-84
2022/07/05 01:20:09;;;;;;;5.83;3.80;;;19.00;16.10;;;;;;5014460;28;20185;-84
2022/07/05 01:22:53;;;;;;;8.73;4.87;;;18.80;21.40;;;;;;5014632;28;20216;-84
2022/07/05 01:25:21;;;;;;;6.53;4.17;;;18.70;24.40;;;;;;5014492;28;20176;-86
2022/07/05 01:27:47;;;;;;;8.57;5.57;;;18.60;27.60;;;;;;5026848;28;20189;-85
2022/07/05 01:30:13;;;;;;;5.10;3.60;;;18.70;27.80;;;;;;5021605;28;20250;-81
2022/07/05 01:32:39;;;;;;;6.27;3.90;;;18.60;28.60;;;;;;5015921;28;20173;-82
2022/07/05 01:35:06;;;;;;;8.17;3.40;;;18.40;31.60;;;;;;5014597;28;20165;-78
2022/07/05 01:37:32;;;;;;;5.63;3.87;;;18.30;34.20;;;;;;5020970;28;20187;-77
2022/07/05 01:40:03;;;;;;;7.83;3.37;;;18.20;35.50;;;;;;5020563;28;20204;-79
2022/07/05 01:42:28;;;;;;;5.00;3.93;;;18.20;36.50;;;;;;5022746;28;20219;-79
2022/07/05 01:44:54;;;;;;;7.23;3.57;;;18.10;37.90;;;;;;5019130;28;20182;-77
2022/07/05 01:47:20;;;;;;;6.43;4.50;;;18.00;38.10;;;;;;5014878;28;20847;-81
2022/07/05 01:49:48;;;;;;;6.10;4.00;;;18.00;37.10;;;;;;5014530;28;20207;-80
2022/07/05 01:52:16;;;;;;;5.63;3.83;;;18.00;37.00;;;;;;5032425;28;20189;-78
2022/07/05 01:54:43;;;;;;;6.07;3.50;;;18.00;37.40;;;;;;5021875;28;20180;-76
2022/07/05 01:57:09;;;;;;;5.73;3.60;;;18.00;34.60;;;;;;5024426;28;20209;-81
2022/07/05 01:59:36;;;;;;;5.87;3.77;;;18.20;29.30;;;;;;5017624;28;20175;-82
2022/07/05 02:02:08;;;;;;;5.00;3.90;;;18.00;32.20;;;;;;5017709;28;20239;-79
2022/07/05 02:04:35;;;;;;;8.27;4.47;;;17.90;33.20;;;;;;5016783;28;20640;-80
2022/07/05 02:07:06;;;;;;;8.63;4.37;;;17.60;38.60;;;;;;5016424;28;20175;-80
2022/07/05 02:09:32;;;;;;;6.27;3.63;;;17.40;45.50;;;;;;5016573;28;20206;-85
2022/07/05 02:11:59;;;;;;;6.00;4.50;;;17.30;49.90;;;;;;5016718;28;20167;-84
2022/07/05 02:14:25;;;;;;;9.27;4.20;;;17.40;50.30;;;;;;5031863;28;20239;-83
2022/07/05 02:16:51;;;;;;;8.37;4.27;;;17.40;47.80;;;;;;5032017;28;20273;-79
2022/07/05 02:19:16;;;;;;;8.23;4.70;;;17.50;47.50;;;;;;5031425;28;20178;-80
2022/07/05 02:21:42;;;;;;;10.10;4.27;;;17.50;47.80;;;;;;5016082;28;20255;-78
2022/07/05 02:24:08;;;;;;;6.03;4.20;;;17.50;48.10;;;;;;5016194;28;20186;-79
2022/07/05 02:26:34;;;;;;;7.63;4.47;;;17.60;46.70;;;;;;5016416;28;20172;-80
2022/07/05 02:29:00;;;;;;;6.83;4.23;;;17.60;46.70;;;;;;5016242;28;20212;-84
2022/07/05 02:31:26;;;;;;;11.13;4.70;;;17.60;46.20;;;;;;5016922;28;20177;-84
2022/07/05 02:33:52;;;;;;;7.33;4.40;;;17.60;46.30;;;;;;5032181;28;20261;-80
2022/07/05 02:36:18;;;;;;;8.10;4.27;;;17.70;45.30;;;;;;5015990;28;20568;-77
2022/07/05 02:38:44;;;;;;;6.17;4.20;;;17.70;46.50;;;;;;5031186;28;20638;-79
2022/07/05 02:41:11;;;;;;;8.37;4.80;;;17.60;49.10;;;;;;5031050;28;20192;-78
2022/07/05 02:43:38;;;;;;;6.77;4.37;;;17.60;48.40;;;;;;5015999;28;20644;-78
2022/07/05 02:46:05;;;;;;;7.13;4.03;;;17.70;47.20;;;;;;5015645;28;20163;-78
2022/07/05 02:48:32;;;;;;;6.70;3.90;;;17.70;46.50;;;;;;5016343;28;20223;-83
2022/07/05 02:50:58;;;;;;;6.47;4.80;;;17.80;42.60;;;;;;5017990;28;20178;-82
2022/07/05 02:53:24;;;;;;;5.37;4.07;;;17.50;41.80;;;;;;5016917;28;20170;-83
2022/07/05 02:55:50;;;;;;;9.13;5.00;;;17.60;46.10;;;;;;5016465;28;20170;-85
2022/07/05 02:58:19;;;;;;;6.97;4.67;;;17.40;48.80;;;;;;5016589;28;20173;-84
2022/07/05 03:00:45;;;;;;;7.23;4.60;;;17.50;46.60;;;;;;5016071;28;20626;-84
2022/07/05 03:03:11;;;;;;;7.93;4.53;;;17.30;50.10;;;;;;5016067;28;20260;-83
2022/07/05 03:05:37;;;;;;;6.67;4.60;;;17.20;52.30;;;;;;5014977;28;20257;-80
2022/07/05 03:08:03;;;;;;;9.37;4.80;;;17.20;52.00;;;;;;5014841;28;20169;-81
2022/07/05 03:10:28;;;;;;;6.07;4.50;;;17.20;53.40;;;;;;5015613;28;20654;-85
2022/07/05 03:12:54;;;;;;;6.00;4.07;;;17.10;57.60;;;;;;5015590;28;20171;-84
2022/07/05 03:15:20;;;;;;;8.17;4.07;;;17.00;59.80;;;;;;5030707;28;20186;-78
2022/07/05 03:17:45;;;;;;;5.60;3.90;;;16.80;64.10;;;;;;5015207;28;20171;-78
2022/07/05 03:20:11;;;;;;;6.07;4.33;;;16.70;68.10;;;;;;5015610;28;20241;-82
2022/07/05 03:22:37;;;;;;;6.60;4.43;;;16.80;67.30;;;;;;5015218;28;20171;-83
2022/07/05 03:25:03;;;;;;;6.67;4.27;;;16.80;66.10;;;;;;5015521;28;20654;-83
2022/07/05 03:27:28;;;;;;;13.13;4.50;;;16.80;65.40;;;;;;5022073;28;20186;-79
2022/07/05 03:29:54;;;;;;;7.00;3.93;;;16.80;65.90;;;;;;5049065;28;20226;-83
2022/07/05 03:32:19;;;;;;;7.67;4.83;;;16.70;66.30;;;;;;5023857;28;20170;-83
2022/07/05 03:34:45;;;;;;;7.93;4.40;;;16.70;69.70;;;;;;5030611;28;20673;-80
2022/07/05 03:37:11;;;;;;;7.20;4.73;;;16.70;67.20;;;;;;5015793;28;20176;-80
2022/07/05 03:39:37;;;;;;;8.57;4.20;;;16.50;67.50;;;;;;5041738;28;20183;-79
2022/07/05 03:42:04;;;;;;;5.63;4.07;;;16.50;68.60;;;;;;5026986;28;20179;-79
2022/07/05 03:44:32;;;;;;;6.73;4.13;;;16.40;72.20;;;;;;5020421;28;20546;-80
2022/07/05 03:47:01;;;;;;;7.47;4.47;;;16.30;74.20;;;;;;5030723;28;20271;-79
2022/07/05 03:49:27;;;;;;;8.90;4.97;;;16.50;71.80;;;;;;5014941;28;20209;-84
2022/07/05 03:51:53;;;;;;;7.10;4.67;;;16.50;71.10;;;;;;5015263;28;20182;-86
2022/07/05 03:54:18;;;;;;;8.00;4.20;;;16.50;69.30;;;;;;5014991;28;20261;-83
2022/07/05 03:56:44;;;;;;;8.50;4.87;;;16.40;70.30;;;;;;5025506;28;20179;-83
2022/07/05 03:59:10;;;;;;;6.83;4.33;;;16.40;70.70;;;;;;5044200;28;20175;-77
2022/07/05 04:01:36;;;;;;;7.57;4.87;;;16.40;70.60;;;;;;5021201;28;20305;-79
2022/07/05 04:04:01;;;;;;;7.23;4.50;;;16.40;71.20;;;;;;5014446;28;20162;-84
2022/07/05 04:06:27;;;;;;;7.00;4.90;;;16.40;70.70;;;;;;5045966;28;20174;-79
2022/07/05 04:08:54;;;;;;;11.07;4.60;;;16.50;69.00;;;;;;5031652;28;20264;-78
2022/07/05 04:11:20;;;;;;;5.60;4.47;;;16.50;66.90;;;;;;5019087;28;20173;-80
2022/07/05 04:14:01;;;;;;;9.67;4.40;;;16.60;66.60;;;;;;5014781;28;20233;-80
2022/07/05 04:16:26;;;;;;;8.63;4.40;;;16.60;67.10;;;;;;5014430;28;20692;-81
2022/07/05 04:18:52;;;;;;;8.03;4.10;;;16.50;67.50;;;;;;5014371;28;20206;-82
2022/07/05 04:21:18;;;;;;;7.93;4.87;;;16.70;68.20;;;;;;5026524;28;20214;-84
2022/07/05 04:23:43;;;;;;;7.60;4.20;;;16.50;66.70;;;;;;5034317;28;20171;-83
2022/07/05 04:26:09;;;;;;;10.00;4.53;;;16.60;65.80;;;;;;5027073;28;20174;-82
2022/07/05 04:28:35;;;;;;;9.37;4.47;;;16.60;64.30;;;;;;5014041;28;20178;-80
2022/07/05 04:31:01;;;;;;;5.20;4.00;;;16.70;59.40;;;;;;5015323;28;20261;-80
2022/07/05 04:33:26;;;;;;;7.37;4.43;;;16.80;56.10;;;;;;5013832;28;20554;-85
2022/07/05 04:35:52;;;;;;;6.43;4.37;;;16.80;53.10;;;;;;5013216;28;20218;-85
2022/07/05 04:38:18;;;;;;;7.33;4.07;;;16.70;52.60;;;;;;5014554;28;20275;-83
2022/07/05 04:40:43;;;;;;;6.27;4.03;;;16.60;54.20;;;;;;5014062;28;20171;-82
2022/07/05 04:43:09;;;;;;;8.87;4.80;;;16.60;56.10;;;;;;5014285;28;20178;-82
2022/07/05 04:45:35;;;;;;;6.83;4.30;;;16.50;57.40;;;;;;5014706;28;20335;-82
2022/07/05 04:48:00;;;;;;;7.63;4.37;;;16.60;56.50;;;;;;5014770;28;20209;-82
2022/07/05 04:50:26;;;;;;;6.77;4.00;;;16.70;54.70;;;;;;5013765;28;20209;-82
2022/07/05 04:52:52;;;;;;;10.03;4.37;;;16.70;53.50;;;;;;5013784;28;20162;-80
2022/07/05 04:55:18;;;;;;;7.60;4.20;;;16.70;52.20;;;;;;5013842;28;20175;-83
2022/07/05 04:57:44;;;;;;;6.93;4.07;;;16.70;51.90;;;;;;5013988;28;20580;-78
2022/07/05 05:00:13;;;;;;;9.37;4.23;;;16.90;50.40;;;;;;5013896;28;20217;-80
2022/07/05 05:02:38;;;;;;;8.23;3.97;;;16.90;49.30;;;;;;5013750;28;20166;-81
2022/07/05 05:05:04;;;;;;;7.60;4.30;;;17.00;47.60;;;;;;5013782;28;20176;-84
2022/07/05 05:07:30;;;;;;;6.80;4.30;;;17.00;45.30;;;;;;5014108;28;20170;-80
2022/07/05 05:09:56;;;;;;;8.80;4.27;;;17.10;42.90;;;;;;5015272;28;20670;-80
2022/07/05 05:12:22;;;;;;;8.53;4.00;;;17.30;33.10;;;;;;5022001;28;20216;-82
2022/07/05 05:14:49;;;;;;;6.93;4.20;;;17.30;32.50;;;;;;5037118;28;20226;-82
2022/07/05 05:17:15;;;;;;;8.07;4.17;;;17.30;30.70;;;;;;5037021;28;20549;-83
2022/07/05 05:19:40;;;;;;;9.80;3.97;;;17.30;30.00;;;;;;5034653;28;20180;-79
2022/07/05 05:22:06;;;;;;;7.33;4.03;;;17.30;32.70;;;;;;5023106;28;20618;-84
2022/07/05 05:24:34;;;;;;;9.03;4.30;;;17.20;36.20;;;;;;5031026;28;20174;-78
2022/07/05 05:27:00;;;;;;;9.77;4.40;;;17.10;39.70;;;;;;5015901;28;20165;-80
2022/07/05 05:29:29;;;;;;;9.47;4.03;;;17.10;43.60;;;;;;5014586;28;20288;-84
2022/07/05 05:31:59;;;;;;;10.37;4.30;;;17.10;42.90;;;;;;5017897;28;20237;-83
2022/07/05 05:34:25;;;;;;;9.77;4.37;;;17.20;42.90;;;;;;5019132;28;20204;-83
2022/07/05 05:36:50;;;;;;;11.13;4.37;;;17.30;38.20;;;;;;5023279;28;20247;-83
2022/07/05 05:39:16;;;;;;;10.70;4.03;;;17.50;35.30;;;;;;5030389;28;20188;-81
2022/07/05 05:41:42;;;;;;;7.33;3.90;;;17.60;31.70;;;;;;5042209;28;20277;-85
2022/07/05 05:44:09;;;;;;;7.30;3.43;;;17.60;30.00;;;;;;5021912;28;20184;-84
2022/07/05 05:46:35;;;;;;;6.30;3.37;;;17.60;30.30;;;;;;5020146;28;20180;-83
2022/07/05 05:49:00;;;;;;;7.10;3.33;;;17.50;32.50;;;;;;5021221;28;20206;-81
2022/07/05 05:51:26;;;;;;;6.03;3.57;;;17.40;34.20;;;;;;5018819;28;20238;-77
2022/07/05 05:53:52;;;;;;;7.23;4.10;;;17.40;36.40;;;;;;5019026;28;20170;-80
2022/07/05 05:56:17;;;;;;;11.53;3.93;;;17.40;35.90;;;;;;5018031;28;20178;-80
2022/07/05 05:58:43;;;;;;;8.30;3.77;;;17.70;30.00;;;;;;5017064;28;20180;-82
2022/07/05 06:01:09;;;;;;;9.93;3.90;;;17.80;25.60;;;;;;5016958;28;20566;-82
2022/07/05 06:03:35;;;;;;;9.03;3.80;;;17.80;23.70;;;;;;5017217;28;20175;-80
2022/07/05 06:06:00;;;;;;;8.77;4.50;;;17.80;24.40;;;;;;5017334;28;20260;-83
2022/07/05 06:08:26;;;;;;;8.17;4.13;;;17.80;26.60;;;;;;5016825;28;20166;-80
2022/07/05 06:10:53;;;;;;;11.20;4.50;;;17.70;27.40;;;;;;5016503;28;20516;-81
2022/07/05 06:13:18;;;;;;;9.40;4.63;;;17.50;29.10;;;;;;5016455;28;20239;-81
2022/07/05 06:15:45;;;;;;;14.10;4.77;;;17.30;37.70;;;;;;5016561;28;20232;-81
2022/07/05 06:18:11;;;;;;;8.93;4.00;;;17.30;39.70;;;;;;5020206;28;20171;-78
2022/07/05 06:20:38;;;;;;;10.80;4.00;;;17.30;44.00;;;;;;5023408;28;20175;-78
2022/07/05 06:23:05;;;;;;;9.17;4.13;;;17.30;44.80;;;;;;5022212;28;20185;-83
2022/07/05 06:25:33;;;;;;;7.73;3.67;;;17.40;44.50;;;;;;5017130;28;20502;-79
2022/07/05 06:28:04;;;;;;;8.53;4.10;;;17.50;43.90;;;;;;5016121;28;20187;-81
2022/07/05 06:30:32;;;;;;;13.63;4.40;;;17.70;40.60;;;;;;5014727;28;20317;-81
2022/07/05 06:32:58;;;;;;;11.33;4.30;;;18.00;35.20;;;;;;5016052;28;20163;-80
2022/07/05 06:35:25;;;;;;;8.37;4.13;;;18.10;28.90;;;;;;5016285;28;20592;-79
2022/07/05 06:38:02;;;;;;;7.37;3.50;;;18.10;26.90;;;;;;5015787;28;20165;-82
2022/07/05 06:40:30;;;;;;;12.43;4.20;;;18.00;29.10;;;;;;5015373;28;20224;-84
2022/07/05 06:42:57;;;;;;;10.80;4.07;;;18.00;33.10;;;;;;5015387;28;20166;-84
2022/07/05 06:45:24;;;;;;;10.37;3.87;;;17.90;35.60;;;;;;5015755;28;20259;-79
2022/07/05 06:47:56;;;;;;;8.67;3.40;;;18.00;37.30;;;;;;5016032;28;20374;-82
2022/07/05 06:50:22;;;;;;;9.50;4.00;;;18.10;32.60;;;;;;5015922;28;20218;-81
2022/07/05 06:52:48;;;;;;;8.13;3.03;;;17.90;35.90;;;;;;5015626;28;20172;-79
2022/07/05 06:55:14;;;;;;;10.60;3.60;;;18.00;39.20;;;;;;5015642;28;20181;-84
2022/07/05 06:57:39;;;;;;;11.07;3.67;;;18.10;39.00;;;;;;5015968;28;20188;-84
2022/07/05 07:00:06;;;;;;;8.57;4.27;;;18.10;35.60;;;;;;5016330;28;20181;-84
2022/07/05 07:02:32;;;;;;;7.87;3.40;;;18.20;35.00;;;;;;5016212;28;20625;-82
2022/07/05 07:04:57;;;;;;;8.37;3.80;;;18.30;33.10;;;;;;5026579;28;20188;-84
2022/07/05 07:10:07;;;;;;;13.40;4.43;;;18.40;27.60;;;;;;5035328;28;20299;-83
2022/07/05 07:12:33;;;;;;;8.90;4.00;;;18.40;29.90;;;;;;5035009;28;20169;-79
2022/07/05 07:14:59;;;;;;;10.83;3.90;;;18.40;33.30;;;;;;5035239;28;20175;-84
2022/07/05 07:17:25;;;;;;;12.73;4.20;;;18.40;35.50;;;;;;5036097;28;20254;-85
2022/07/05 07:19:51;;;;;;;10.37;3.83;;;18.40;36.20;;;;;;5037644;28;20641;-83
2022/07/05 07:22:16;;;;;;;13.50;4.30;;;18.40;34.40;;;;;;5035348;28;20192;-86
2022/07/05 07:24:42;;;;;;;8.80;3.80;;;18.50;31.90;;;;;;5034472;28;20180;-83
2022/07/05 07:27:08;;;;;;;8.80;4.53;;;18.70;30.10;;;;;;5037154;28;20172;-84
2022/07/05 07:29:38;;;;;;;9.27;4.13;;;18.80;23.50;;;;;;5035868;28;20209;-86
2022/07/05 07:32:06;;;;;;;13.47;4.73;;;19.00;22.20;;;;;;5045166;28;20166;-83
2022/07/05 07:34:33;;;;;;;9.33;4.00;;;19.10;20.50;;;;;;5052325;28;20177;-82
2022/07/05 07:36:59;;;;;;;12.87;4.77;;;19.20;18.80;;;;;;5041243;28;20674;-84
2022/07/05 07:39:26;;;;;;;9.87;3.70;;;19.30;17.90;;;;;;5034924;28;20170;-79
2022/07/05 07:41:52;;;;;;;10.10;4.33;;;19.50;13.50;;;;;;5034194;28;20236;-80
2022/07/05 07:44:18;;;;;;;8.73;4.53;;;19.60;9.90;;;;;;5034838;28;20171;-84
2022/07/05 07:46:45;;;;;;;11.27;4.63;;;19.80;6.10;;;;;;5035361;28;20170;-86
2022/07/05 07:49:12;;;;;;;12.20;4.50;;;19.80;4.20;;;;;;5034497;28;20194;-81
2022/07/05 07:51:39;;;;;;;8.67;4.17;;;19.80;7.60;;;;;;5034591;28;20174;-78
2022/07/05 07:54:05;;;;;;;10.00;4.17;;;19.80;7.10;;;;;;5034427;28;20162;-80
2022/07/05 07:56:30;;;;;;;13.63;4.50;;;19.90;6.00;;;;;;5039926;28;20545;-80
2022/07/05 07:58:56;;;;;;;14.20;4.10;;;20.00;1.00;;;;;;5043397;28;20159;-82
2022/07/05 08:01:22;;;;;;;14.23;4.83;;;20.00;2.80;;;;;;5050040;28;20185;-82
2022/07/05 08:03:48;;;;;;;12.63;4.50;;;19.80;3.90;;;;;;5053171;28;20183;-82
2022/07/05 08:06:15;;;;;;;12.77;5.27;;;19.90;4.60;;;;;;5049245;28;20181;-85
2022/07/05 08:08:43;;;;;;;15.20;4.60;;;20.00;1.00;;;;;;5036484;28;20174;-79
2022/07/05 08:11:10;;;;;;;17.67;5.03;;;20.10;1.80;;;;;;5034078;28;20178;-79
2022/07/05 08:13:37;;;;;;;13.37;4.50;;;20.20;4.50;;;;;;5032648;28;20180;-80
2022/07/05 08:16:03;;;;;;;12.40;5.00;;;20.30;1.00;;;;;;5034600;28;20612;-84
2022/07/05 08:21:31;;;;;;;10.30;4.80;;;20.60;1.00;;;;;;5034279;28;20207;-84
2022/07/05 08:24:02;;;;;;;10.03;4.63;;;20.50;1.00;;;;;;5034878;28;20648;-79
2022/07/05 08:26:30;;;;;;;9.70;5.37;;;20.50;1.00;;;;;;5034095;28;20174;-80
2022/07/05 08:28:58;;;;;;;7.60;4.47;;;20.40;1.00;;;;;;5033515;28;20228;-80
2022/07/05 08:31:24;;;;;;;16.50;11.13;;;20.30;1.00;;;;;;5034761;28;20186;-83
2022/07/05 08:33:51;;;;;;;11.77;6.63;;;20.30;1.00;;;;;;5045319;28;20226;-76
2022/07/05 08:36:17;;;;;;;11.67;6.43;;;20.30;1.00;;;;;;5039042;28;20171;-79
2022/07/05 08:38:43;;;;;;;13.37;7.10;;;20.00;1.00;;;;;;5037018;28;20256;-85
2022/07/05 08:41:11;;;;;;;11.87;5.73;;;20.10;1.00;;;;;;5034395;28;20183;-86
2022/07/05 08:43:40;;;;;;;14.57;5.90;;;20.20;1.00;;;;;;5034634;28;20168;-83
2022/07/05 08:46:10;;;;;;;13.17;6.20;;;20.40;1.00;;;;;;5034642;28;20649;-84
2022/07/05 08:48:44;;;;;;;10.67;5.17;;;20.60;1.00;;;;;;5037859;28;20608;-84
2022/07/05 08:51:16;;;;;;;11.23;4.93;;;20.70;1.00;;;;;;5041418;28;20193;-81
2022/07/05 08:53:43;;;;;;;6.83;4.70;;;20.80;1.00;;;;;;5044107;28;20176;-80
2022/07/05 08:56:12;;;;;;;9.67;4.50;;;20.90;1.00;;;;;;5040084;28;20173;-77
2022/07/05 08:58:38;;;;;;;7.63;3.83;;;20.80;1.00;;;;;;5040113;28;20211;-79
2022/07/05 09:01:06;;;;;;;7.93;4.67;;;20.70;1.00;;;;;;5038637;28;20236;-79
2022/07/05 09:03:37;;;;;;;8.87;4.10;;;20.90;1.00;;;;;;5035523;28;20224;-84
2022/07/05 09:06:06;;;;;;;8.13;4.33;;;21.00;1.00;;;;;;5034701;28;20245;-80
2022/07/05 09:08:38;;;;;;;8.77;4.37;;;21.20;1.00;;;;;;5032501;28;20173;-79
2022/07/05 09:11:05;;;;;;;7.83;4.43;;;21.20;1.00;;;;;;5033565;28;20309;-85
2022/07/05 09:13:39;;;;;;;9.00;4.20;;;21.30;1.00;;;;;;5033691;28;20219;-80
2022/07/05 09:16:05;;;;;;;8.57;4.23;;;21.20;1.00;;;;;;5033354;28;20171;-79
2022/07/05 09:18:44;;;;;;;8.97;4.30;;;21.20;1.00;;;;;;5033481;28;20173;-81
2022/07/05 09:21:23;;;;;;;9.70;5.00;;;21.20;1.00;;;;;;5033360;28;20172;-80
2022/07/05 09:23:57;;;;;;;9.83;4.00;;;21.20;1.00;;;;;;5034272;28;20170;-78
2022/07/05 09:26:36;;;;;;;9.23;4.40;;;21.30;1.00;;;;;;5032943;28;20167;-83
2022/07/05 09:29:11;;;;;;;8.23;4.40;;;21.40;1.00;;;;;;5032982;28;20203;-81
2022/07/05 09:31:39;;;;;;;9.20;4.73;;;21.50;1.00;;;;;;5033654;28;20176;-83
2022/07/05 09:34:13;;;;;;;11.77;5.00;;;21.30;1.00;;;;;;5034036;28;20158;-81
2022/07/05 09:36:51;;;;;;;9.70;4.97;;;21.50;1.00;;;;;;5033747;28;20174;-84
2022/07/05 09:39:29;;;;;;;9.47;4.50;;;21.80;1.00;;;;;;5032899;28;20643;-79
2022/07/05 09:42:17;;;;;;;10.27;4.97;;;22.00;1.00;;;;;;5033405;28;20169;-81
2022/07/05 09:44:48;;;;;;;12.83;4.73;;;22.10;1.00;;;;;;5033542;28;20193;-86
2022/07/05 09:47:16;;;;;;;11.40;4.43;;;22.10;1.00;;;;;;5033753;28;20189;-85
2022/07/05 09:49:51;;;;;;;11.73;4.50;;;22.10;1.00;;;;;;5033861;28;20208;-85
2022/07/05 09:52:40;;;;;;;7.93;4.03;;;22.20;1.00;;;;;;5032814;28;20205;-82
2022/07/05 09:55:08;;;;;;;8.47;4.23;;;22.60;1.00;;;;;;5033212;28;20207;-80
2022/07/05 09:57:36;;;;;;;9.20;4.67;;;22.90;1.00;;;;;;5033184;28;20171;-79
2022/07/05 10:00:07;;;;;;;8.03;4.50;;;23.10;1.00;;;;;;5032635;28;20225;-81
2022/07/05 10:02:36;;;;;;;10.57;4.20;;;22.80;1.00;;;;;;5032265;28;20178;-79
2022/07/05 10:05:09;;;;;;;7.97;3.93;;;22.20;1.00;;;;;;5032647;28;20243;-83
2022/07/05 10:07:36;;;;;;;9.37;4.20;;;22.10;1.00;;;;;;5032741;28;20181;-81
2022/07/05 10:10:03;;;;;;;7.60;4.07;;;22.10;1.00;;;;;;5027788;28;20223;-81
2022/07/05 10:12:30;;;;;;;10.70;4.17;;;22.50;1.00;;;;;;5027826;28;20177;-84
2022/07/05 10:14:59;;;;;;;5.23;2.40;;;22.70;1.00;;;;;;5033089;28;20165;-85
2022/07/05 10:17:27;;;;;;;9.47;4.27;;;22.60;99.90;;;;;;5036503;28;20172;-85
2022/07/05 10:19:55;;;;;;;6.57;3.70;;;22.60;1.00;;;;;;5036814;28;20219;-84
2022/07/05 10:22:21;;;;;;;7.17;3.80;;;22.70;1.00;;;;;;5036489;28;20634;-80
2022/07/05 10:24:47;;;;;;;6.63;3.10;;;22.80;1.00;;;;;;5036217;28;20201;-84
2022/07/05 10:27:14;;;;;;;7.57;3.60;;;22.80;1.00;;;;;;5035597;28;20661;-82
2022/07/05 10:29:40;;;;;;;7.00;3.40;;;22.80;1.00;;;;;;5035825;28;20195;-82
2022/07/05 10:32:11;;;;;;;5.97;3.27;;;22.70;1.00;;;;;;5037035;28;20180;-83
2022/07/05 10:34:38;;;;;;;9.63;3.20;;;22.60;1.00;;;;;;5035857;28;20240;-79
2022/07/05 10:37:06;;;;;;;5.57;3.03;;;22.50;1.00;;;;;;5035516;28;20171;-82
2022/07/05 10:39:32;;;;;;;3.67;2.47;;;22.50;1.00;;;;;;5028525;28;20532;-81
2022/07/05 10:41:58;;;;;;;5.60;2.53;;;22.60;1.00;;;;;;5022241;28;20688;-83
2022/07/05 10:44:32;;;;;;;6.17;2.63;;;22.90;1.00;;;;;;5016367;28;20199;-84
2022/07/05 10:47:12;;;;;;;6.70;2.80;;;23.20;1.00;;;;;;5017578;28;20745;-84
2022/07/05 10:49:39;;;;;;;5.23;2.37;;;23.40;1.00;;;;;;5030886;28;20211;-78
2022/07/05 10:52:20;;;;;;;5.23;2.47;;;23.70;99.90;;;;;;5030387;28;20184;-78
2022/07/05 10:55:17;;;;;;;4.53;2.10;;;23.60;99.90;;;;;;5023420;28;20184;-82
2022/07/05 10:57:43;;;;;;;4.30;2.10;;;23.50;99.90;;;;;;5016658;28;20173;-85
2022/07/05 11:00:11;;;;;;;6.97;2.10;;;23.50;91.40;;;;;;5015882;28;20533;-80
2022/07/05 11:02:37;;;;;;;5.07;2.27;;;23.90;99.90;;;;;;5015601;28;20174;-80
2022/07/05 11:05:04;;;;;;;5.83;1.77;;;24.20;1.30;;;;;;5015633;28;20167;-84
2022/07/05 11:07:58;;;;;;;4.57;1.93;;;24.00;1.00;;;;;;5015625;28;20185;-84
2022/07/05 11:10:24;;;;;;;7.20;2.17;;;23.90;84.80;;;;;;5015593;28;20572;-80
2022/07/05 11:12:50;;;;;;;3.30;1.63;;;23.40;99.90;;;;;;5030569;28;20514;-80
2022/07/05 11:15:16;;;;;;;4.10;1.77;;;23.00;99.90;;;;;;5015723;28;20200;-79
2022/07/05 11:17:43;;;;;;;5.47;2.17;;;23.10;99.90;;;;;;5015484;28;20175;-81
2022/07/05 11:20:30;;;;;;;5.07;1.70;;;23.40;99.90;;;;;;5015258;28;20178;-80
2022/07/05 11:23:08;;;;;;;3.83;1.67;;;23.60;1.00;;;;;;5015271;28;20192;-82
2022/07/05 11:25:37;;;;;;;5.13;2.00;;;23.50;99.90;;;;;;5015121;28;20165;-83
2022/07/05 11:28:17;;;;;;;5.80;1.70;;;23.60;99.90;;;;;;5014028;28;20195;-81
2022/07/05 11:30:59;;;;;;;4.13;1.90;;;23.40;1.00;;;;;;5030129;28;20300;-82
2022/07/05 11:33:42;;;;;;;3.27;1.63;;;23.10;1.00;;;;;;5015193;28;20635;-84
2022/07/05 11:36:28;;;;;;;3.77;1.97;;;23.20;64.90;;;;;;5013680;28;20181;-85
2022/07/05 11:39:16;;;;;;;6.37;1.97;;;23.20;99.90;;;;;;5015084;28;20203;-80
2022/07/05 11:41:46;;;;;;;6.00;2.00;;;23.20;1.00;;;;;;5017845;28;20176;-84
2022/07/05 11:44:12;;;;;;;3.97;2.03;;;23.30;5.30;;;;;;5030916;28;20586;-80
2022/07/05 11:46:40;;;;;;;5.73;2.00;;;23.20;99.90;;;;;;5034773;28;20185;-79
2022/07/05 11:49:05;;;;;;;4.43;1.80;;;23.10;99.90;;;;;;5020085;28;20203;-81
2022/07/05 11:51:31;;;;;;;4.97;2.20;;;23.20;1.00;;;;;;5015860;28;20179;-83
2022/07/05 11:53:57;;;;;;;4.23;2.10;;;23.10;1.00;;;;;;5014786;28;20192;-83
2022/07/05 11:56:23;;;;;;;4.00;2.00;;;23.10;93.20;;;;;;5015013;28;20284;-80
2022/07/05 11:58:49;;;;;;;7.33;2.57;;;22.90;99.90;;;;;;5030179;28;20252;-80
2022/07/05 12:01:15;;;;;;;5.60;2.30;;;22.80;99.90;;;;;;5014553;28;20176;-81
2022/07/05 12:03:51;;;;;;;4.77;2.50;;;22.80;99.90;;;;;;5013911;28;20159;-80
2022/07/05 12:06:17;;;;;;;6.07;2.50;;;23.00;99.90;;;;;;5014592;28;20251;-79
2022/07/05 12:08:43;;;;;;;7.30;2.17;;;23.20;99.90;;;;;;5014278;28;20601;-81
2022/07/05 12:13:56;;;;;;;7.07;2.50;;;23.50;99.90;;;;;;5014988;28;20174;-83
2022/07/05 12:16:23;;;;;;;5.03;2.37;;;23.50;99.90;;;;;;5020765;28;20171;-79
2022/07/05 12:18:51;;;;;;;7.37;2.80;;;23.50;99.90;;;;;;5021537;28;20199;-79
2022/07/05 12:21:20;;;;;;;5.93;2.20;;;23.50;99.90;;;;;;5016656;28;20260;-82
2022/07/05 12:23:46;;;;;;;6.13;2.90;;;23.80;99.90;;;;;;5014323;28;20184;-80
2022/07/05 12:26:14;;;;;;;6.30;2.90;;;24.00;1.00;;;;;;5014683;28;20188;-79
2022/07/05 12:28:41;;;;;;;3.97;2.53;;;23.60;1.00;;;;;;5014467;28;20196;-80
2022/07/05 12:31:23;;;;;;;5.47;2.97;;;23.40;99.90;;;;;;5033587;28;20184;-82
2022/07/05 12:33:51;;;;;;;4.83;2.67;;;23.20;99.90;;;;;;5023235;28;20180;-83
2022/07/05 12:36:20;;;;;;;7.20;3.10;;;23.20;99.90;;;;;;5035179;28;20162;-82
2022/07/05 12:38:45;;;;;;;5.07;2.90;;;23.30;99.90;;;;;;5038050;28;20167;-85
2022/07/05 12:41:20;;;;;;;5.80;2.90;;;22.80;1.00;;;;;;5041342;28;20180;-82
2022/07/05 12:43:55;;;;;;;5.63;3.00;;;22.70;1.00;;;;;;5039128;28;20234;-83
2022/07/05 12:46:38;;;;;;;4.93;2.73;;;22.50;1.00;;;;;;5045622;28;20186;-79
2022/07/05 12:49:05;;;;;;;6.47;3.33;;;22.70;1.00;;;;;;5045673;28;20200;-79
2022/07/05 12:51:38;;;;;;;3.80;2.63;;;23.10;1.00;;;;;;5042225;28;20199;-80
2022/07/05 12:59:40;;;;;;;5.73;2.50;;;22.50;1.00;;;;;;5033947;28;20545;-79
2022/07/05 13:02:40;;;;;;;4.93;2.30;;;22.40;1.00;;;;;;5033556;28;20162;-80
2022/07/05 13:05:08;;;;;;;6.30;2.20;;;22.60;1.00;;;;;;5033548;28;20165;-79
2022/07/05 13:07:42;;;;;;;6.17;2.13;;;22.90;1.00;;;;;;5038988;28;20231;-80